<?xml version="1.0" encoding="UTF-8" ?>
<gpx version="1.1" xmlns:xsi="http://www.w3.org/2001/XMLSchema-instance" 
    xmlns="http://www.topografix.com/GPX/1/1" 
    xsi:schemaLocation="http://www.topografix.com/GPX/1/1 http://www.topografix.com/GPX/1/1/gpx.xsd" 
    creator="Openrunner - https://www.openrunner.com" >	<trk>
						<name>Brussieu_Circuit La Carrière-21753996</name>
						<trkseg>
					<trkpt lat="45.746880" lon="4.524550">
						<ele>440</ele>
						<time>2025-06-26T09:11:01Z</time>
					</trkpt>
					<trkpt lat="45.746910" lon="4.524640">
						<ele>440</ele>
						<time>2025-06-26T09:11:10Z</time>
					</trkpt>
					<trkpt lat="45.747060" lon="4.524930">
						<ele>442</ele>
						<time>2025-06-26T09:11:44Z</time>
					</trkpt>
					<trkpt lat="45.747030" lon="4.524960">
						<ele>441</ele>
						<time>2025-06-26T09:11:49Z</time>
					</trkpt>
					<trkpt lat="45.746900" lon="4.525110">
						<ele>438</ele>
						<time>2025-06-26T09:12:11Z</time>
					</trkpt>
					<trkpt lat="45.746780" lon="4.525190">
						<ele>436</ele>
						<time>2025-06-26T09:12:29Z</time>
					</trkpt>
					<trkpt lat="45.746740" lon="4.525210">
						<ele>435</ele>
						<time>2025-06-26T09:12:34Z</time>
					</trkpt>
					<trkpt lat="45.746620" lon="4.525200">
						<ele>433</ele>
						<time>2025-06-26T09:12:50Z</time>
					</trkpt>
					<trkpt lat="45.745970" lon="4.525130">
						<ele>427</ele>
						<time>2025-06-26T09:14:17Z</time>
					</trkpt>
					<trkpt lat="45.745790" lon="4.525110">
						<ele>426</ele>
						<time>2025-06-26T09:14:41Z</time>
					</trkpt>
					<trkpt lat="45.745660" lon="4.525120">
						<ele>426</ele>
						<time>2025-06-26T09:14:59Z</time>
					</trkpt>
					<trkpt lat="45.745550" lon="4.525160">
						<ele>425</ele>
						<time>2025-06-26T09:15:14Z</time>
					</trkpt>
					<trkpt lat="45.745440" lon="4.525270">
						<ele>424</ele>
						<time>2025-06-26T09:15:32Z</time>
					</trkpt>
					<trkpt lat="45.745210" lon="4.525650">
						<ele>418</ele>
						<time>2025-06-26T09:16:19Z</time>
					</trkpt>
					<trkpt lat="45.745000" lon="4.525930">
						<ele>414</ele>
						<time>2025-06-26T09:16:57Z</time>
					</trkpt>
					<trkpt lat="45.744920" lon="4.525990">
						<ele>412</ele>
						<time>2025-06-26T09:17:09Z</time>
					</trkpt>
					<trkpt lat="45.744760" lon="4.526080">
						<ele>410</ele>
						<time>2025-06-26T09:17:32Z</time>
					</trkpt>
					<trkpt lat="45.744600" lon="4.526230">
						<ele>407</ele>
						<time>2025-06-26T09:17:58Z</time>
					</trkpt>
					<trkpt lat="45.744500" lon="4.526250">
						<ele>406</ele>
						<time>2025-06-26T09:18:11Z</time>
					</trkpt>
					<trkpt lat="45.744350" lon="4.526210">
						<ele>405</ele>
						<time>2025-06-26T09:18:31Z</time>
					</trkpt>
					<trkpt lat="45.743970" lon="4.525970">
						<ele>402</ele>
						<time>2025-06-26T09:19:27Z</time>
					</trkpt>
					<trkpt lat="45.743710" lon="4.525900">
						<ele>397</ele>
						<time>2025-06-26T09:20:02Z</time>
					</trkpt>
					<trkpt lat="45.743430" lon="4.525730">
						<ele>394</ele>
						<time>2025-06-26T09:20:43Z</time>
					</trkpt>
					<trkpt lat="45.743180" lon="4.525560">
						<ele>389</ele>
						<time>2025-06-26T09:21:20Z</time>
					</trkpt>
					<trkpt lat="45.743040" lon="4.525340">
						<ele>388</ele>
						<time>2025-06-26T09:21:47Z</time>
					</trkpt>
					<trkpt lat="45.742900" lon="4.525060">
						<ele>388</ele>
						<time>2025-06-26T09:22:19Z</time>
					</trkpt>
					<trkpt lat="45.742810" lon="4.524790">
						<ele>389</ele>
						<time>2025-06-26T09:22:47Z</time>
					</trkpt>
					<trkpt lat="45.742750" lon="4.524570">
						<ele>390</ele>
						<time>2025-06-26T09:23:09Z</time>
					</trkpt>
					<trkpt lat="45.742710" lon="4.524510">
						<ele>389</ele>
						<time>2025-06-26T09:23:17Z</time>
					</trkpt>
					<trkpt lat="45.742700" lon="4.524290">
						<ele>391</ele>
						<time>2025-06-26T09:23:38Z</time>
					</trkpt>
					<trkpt lat="45.742750" lon="4.524020">
						<ele>395</ele>
						<time>2025-06-26T09:24:04Z</time>
					</trkpt>
					<trkpt lat="45.742730" lon="4.523770">
						<ele>397</ele>
						<time>2025-06-26T09:24:27Z</time>
					</trkpt>
					<trkpt lat="45.742670" lon="4.523540">
						<ele>397</ele>
						<time>2025-06-26T09:24:50Z</time>
					</trkpt>
					<trkpt lat="45.742620" lon="4.523480">
						<ele>397</ele>
						<time>2025-06-26T09:24:59Z</time>
					</trkpt>
					<trkpt lat="45.742520" lon="4.523540">
						<ele>394</ele>
						<time>2025-06-26T09:25:13Z</time>
					</trkpt>
					<trkpt lat="45.742380" lon="4.523620">
						<ele>391</ele>
						<time>2025-06-26T09:25:33Z</time>
					</trkpt>
					<trkpt lat="45.742170" lon="4.523720">
						<ele>388</ele>
						<time>2025-06-26T09:26:03Z</time>
					</trkpt>
					<trkpt lat="45.741940" lon="4.523590">
						<ele>387</ele>
						<time>2025-06-26T09:26:36Z</time>
					</trkpt>
					<trkpt lat="45.741620" lon="4.523500">
						<ele>386</ele>
						<time>2025-06-26T09:27:19Z</time>
					</trkpt>
					<trkpt lat="45.741110" lon="4.523180">
						<ele>386</ele>
						<time>2025-06-26T09:28:33Z</time>
					</trkpt>
					<trkpt lat="45.740910" lon="4.523080">
						<ele>385</ele>
						<time>2025-06-26T09:29:02Z</time>
					</trkpt>
					<trkpt lat="45.740840" lon="4.523020">
						<ele>385</ele>
						<time>2025-06-26T09:29:13Z</time>
					</trkpt>
					<trkpt lat="45.740730" lon="4.522830">
						<ele>384</ele>
						<time>2025-06-26T09:29:36Z</time>
					</trkpt>
					<trkpt lat="45.740570" lon="4.522470">
						<ele>382</ele>
						<time>2025-06-26T09:30:15Z</time>
					</trkpt>
					<trkpt lat="45.740540" lon="4.522380">
						<ele>381</ele>
						<time>2025-06-26T09:30:25Z</time>
					</trkpt>
					<trkpt lat="45.740480" lon="4.522240">
						<ele>379</ele>
						<time>2025-06-26T09:30:40Z</time>
					</trkpt>
					<trkpt lat="45.740460" lon="4.521980">
						<ele>379</ele>
						<time>2025-06-26T09:31:04Z</time>
					</trkpt>
					<trkpt lat="45.740500" lon="4.521680">
						<ele>380</ele>
						<time>2025-06-26T09:31:33Z</time>
					</trkpt>
					<trkpt lat="45.740600" lon="4.521350">
						<ele>383</ele>
						<time>2025-06-26T09:32:06Z</time>
					</trkpt>
					<trkpt lat="45.740710" lon="4.520880">
						<ele>386</ele>
						<time>2025-06-26T09:32:52Z</time>
					</trkpt>
					<trkpt lat="45.740780" lon="4.520640">
						<ele>391</ele>
						<time>2025-06-26T09:33:17Z</time>
					</trkpt>
					<trkpt lat="45.740790" lon="4.520480">
						<ele>393</ele>
						<time>2025-06-26T09:33:32Z</time>
					</trkpt>
					<trkpt lat="45.740760" lon="4.520400">
						<ele>392</ele>
						<time>2025-06-26T09:33:40Z</time>
					</trkpt>
					<trkpt lat="45.740650" lon="4.520280">
						<ele>389</ele>
						<time>2025-06-26T09:33:59Z</time>
					</trkpt>
					<trkpt lat="45.740560" lon="4.520120">
						<ele>386</ele>
						<time>2025-06-26T09:34:18Z</time>
					</trkpt>
					<trkpt lat="45.740520" lon="4.519700">
						<ele>388</ele>
						<time>2025-06-26T09:34:57Z</time>
					</trkpt>
					<trkpt lat="45.740400" lon="4.519000">
						<ele>389</ele>
						<time>2025-06-26T09:36:04Z</time>
					</trkpt>
					<trkpt lat="45.740290" lon="4.518600">
						<ele>385</ele>
						<time>2025-06-26T09:36:44Z</time>
					</trkpt>
					<trkpt lat="45.740150" lon="4.518160">
						<ele>380</ele>
						<time>2025-06-26T09:37:29Z</time>
					</trkpt>
					<trkpt lat="45.740140" lon="4.518030">
						<ele>379</ele>
						<time>2025-06-26T09:37:42Z</time>
					</trkpt>
					<trkpt lat="45.740260" lon="4.517770">
						<ele>381</ele>
						<time>2025-06-26T09:38:11Z</time>
					</trkpt>
					<trkpt lat="45.740330" lon="4.517580">
						<ele>381</ele>
						<time>2025-06-26T09:38:31Z</time>
					</trkpt>
					<trkpt lat="45.740380" lon="4.517510">
						<ele>381</ele>
						<time>2025-06-26T09:38:40Z</time>
					</trkpt>
					<trkpt lat="45.740320" lon="4.517470">
						<ele>381</ele>
						<time>2025-06-26T09:38:49Z</time>
					</trkpt>
					<trkpt lat="45.740230" lon="4.517470">
						<ele>379</ele>
						<time>2025-06-26T09:39:01Z</time>
					</trkpt>
					<trkpt lat="45.740190" lon="4.517460">
						<ele>379</ele>
						<time>2025-06-26T09:39:06Z</time>
					</trkpt>
					<trkpt lat="45.740090" lon="4.517550">
						<ele>377</ele>
						<time>2025-06-26T09:39:22Z</time>
					</trkpt>
					<trkpt lat="45.740020" lon="4.517700">
						<ele>376</ele>
						<time>2025-06-26T09:39:39Z</time>
					</trkpt>
					<trkpt lat="45.739920" lon="4.517780">
						<ele>374</ele>
						<time>2025-06-26T09:39:54Z</time>
					</trkpt>
					<trkpt lat="45.739480" lon="4.517930">
						<ele>366</ele>
						<time>2025-06-26T09:40:54Z</time>
					</trkpt>
					<trkpt lat="45.739400" lon="4.517990">
						<ele>365</ele>
						<time>2025-06-26T09:41:06Z</time>
					</trkpt>
					<trkpt lat="45.739320" lon="4.518030">
						<ele>363</ele>
						<time>2025-06-26T09:41:18Z</time>
					</trkpt>
					<trkpt lat="45.739260" lon="4.518030">
						<ele>362</ele>
						<time>2025-06-26T09:41:26Z</time>
					</trkpt>
					<trkpt lat="45.739240" lon="4.518020">
						<ele>361</ele>
						<time>2025-06-26T09:41:29Z</time>
					</trkpt>
					<trkpt lat="45.739200" lon="4.517990">
						<ele>361</ele>
						<time>2025-06-26T09:41:35Z</time>
					</trkpt>
					<trkpt lat="45.739120" lon="4.517710">
						<ele>361</ele>
						<time>2025-06-26T09:42:03Z</time>
					</trkpt>
					<trkpt lat="45.739080" lon="4.517540">
						<ele>361</ele>
						<time>2025-06-26T09:42:19Z</time>
					</trkpt>
					<trkpt lat="45.739010" lon="4.517530">
						<ele>359</ele>
						<time>2025-06-26T09:42:29Z</time>
					</trkpt>
					<trkpt lat="45.738870" lon="4.517520">
						<ele>357</ele>
						<time>2025-06-26T09:42:48Z</time>
					</trkpt>
					<trkpt lat="45.738790" lon="4.517460">
						<ele>356</ele>
						<time>2025-06-26T09:43:00Z</time>
					</trkpt>
					<trkpt lat="45.738760" lon="4.517300">
						<ele>356</ele>
						<time>2025-06-26T09:43:15Z</time>
					</trkpt>
					<trkpt lat="45.738730" lon="4.516940">
						<ele>355</ele>
						<time>2025-06-26T09:43:49Z</time>
					</trkpt>
					<trkpt lat="45.738740" lon="4.516740">
						<ele>355</ele>
						<time>2025-06-26T09:44:07Z</time>
					</trkpt>
					<trkpt lat="45.738750" lon="4.516600">
						<ele>356</ele>
						<time>2025-06-26T09:44:21Z</time>
					</trkpt>
					<trkpt lat="45.738710" lon="4.516570">
						<ele>355</ele>
						<time>2025-06-26T09:44:27Z</time>
					</trkpt>
					<trkpt lat="45.738620" lon="4.516640">
						<ele>353</ele>
						<time>2025-06-26T09:44:40Z</time>
					</trkpt>
					<trkpt lat="45.738440" lon="4.516810">
						<ele>350</ele>
						<time>2025-06-26T09:45:09Z</time>
					</trkpt>
					<trkpt lat="45.738350" lon="4.516820">
						<ele>348</ele>
						<time>2025-06-26T09:45:21Z</time>
					</trkpt>
					<trkpt lat="45.738260" lon="4.516770">
						<ele>350</ele>
						<time>2025-06-26T09:45:34Z</time>
					</trkpt>
					<trkpt lat="45.738190" lon="4.516670">
						<ele>352</ele>
						<time>2025-06-26T09:45:47Z</time>
					</trkpt>
					<trkpt lat="45.738180" lon="4.516360">
						<ele>353</ele>
						<time>2025-06-26T09:46:16Z</time>
					</trkpt>
					<trkpt lat="45.738130" lon="4.516350">
						<ele>354</ele>
						<time>2025-06-26T09:46:23Z</time>
					</trkpt>
					<trkpt lat="45.738040" lon="4.516340">
						<ele>357</ele>
						<time>2025-06-26T09:46:35Z</time>
					</trkpt>
					<trkpt lat="45.738000" lon="4.516150">
						<ele>358</ele>
						<time>2025-06-26T09:46:53Z</time>
					</trkpt>
					<trkpt lat="45.737950" lon="4.516050">
						<ele>360</ele>
						<time>2025-06-26T09:47:05Z</time>
					</trkpt>
					<trkpt lat="45.737720" lon="4.515620">
						<ele>367</ele>
						<time>2025-06-26T09:47:55Z</time>
					</trkpt>
					<trkpt lat="45.737670" lon="4.515300">
						<ele>368</ele>
						<time>2025-06-26T09:48:26Z</time>
					</trkpt>
					<trkpt lat="45.737320" lon="4.513960">
						<ele>381</ele>
						<time>2025-06-26T09:50:39Z</time>
					</trkpt>
					<trkpt lat="45.737280" lon="4.513760">
						<ele>383</ele>
						<time>2025-06-26T09:50:58Z</time>
					</trkpt>
					<trkpt lat="45.737250" lon="4.513560">
						<ele>384</ele>
						<time>2025-06-26T09:51:17Z</time>
					</trkpt>
					<trkpt lat="45.737110" lon="4.513060">
						<ele>390</ele>
						<time>2025-06-26T09:52:08Z</time>
					</trkpt>
					<trkpt lat="45.737080" lon="4.512830">
						<ele>391</ele>
						<time>2025-06-26T09:52:29Z</time>
					</trkpt>
					<trkpt lat="45.737050" lon="4.512690">
						<ele>392</ele>
						<time>2025-06-26T09:52:43Z</time>
					</trkpt>
					<trkpt lat="45.736820" lon="4.512000">
						<ele>395</ele>
						<time>2025-06-26T09:53:54Z</time>
					</trkpt>
					<trkpt lat="45.736690" lon="4.511660">
						<ele>395</ele>
						<time>2025-06-26T09:54:30Z</time>
					</trkpt>
					<trkpt lat="45.736620" lon="4.511610">
						<ele>395</ele>
						<time>2025-06-26T09:54:41Z</time>
					</trkpt>
					<trkpt lat="45.736540" lon="4.511610">
						<ele>395</ele>
						<time>2025-06-26T09:54:52Z</time>
					</trkpt>
					<trkpt lat="45.736330" lon="4.511750">
						<ele>400</ele>
						<time>2025-06-26T09:55:22Z</time>
					</trkpt>
					<trkpt lat="45.736140" lon="4.511800">
						<ele>403</ele>
						<time>2025-06-26T09:55:48Z</time>
					</trkpt>
					<trkpt lat="45.735850" lon="4.511980">
						<ele>412</ele>
						<time>2025-06-26T09:56:30Z</time>
					</trkpt>
					<trkpt lat="45.735520" lon="4.512030">
						<ele>417</ele>
						<time>2025-06-26T09:57:15Z</time>
					</trkpt>
					<trkpt lat="45.734420" lon="4.512020">
						<ele>423</ele>
						<time>2025-06-26T09:59:41Z</time>
					</trkpt>
					<trkpt lat="45.734220" lon="4.512050">
						<ele>424</ele>
						<time>2025-06-26T10:00:08Z</time>
					</trkpt>
					<trkpt lat="45.734010" lon="4.512210">
						<ele>430</ele>
						<time>2025-06-26T10:00:40Z</time>
					</trkpt>
					<trkpt lat="45.733700" lon="4.512590">
						<ele>444</ele>
						<time>2025-06-26T10:01:34Z</time>
					</trkpt>
					<trkpt lat="45.733590" lon="4.512630">
						<ele>446</ele>
						<time>2025-06-26T10:01:50Z</time>
					</trkpt>
					<trkpt lat="45.733590" lon="4.512630">
						<ele>446</ele>
						<time>2025-06-26T10:01:50Z</time>
					</trkpt>
					<trkpt lat="45.733510" lon="4.512660">
						<ele>447</ele>
						<time>2025-06-26T10:02:01Z</time>
					</trkpt>
					<trkpt lat="45.733330" lon="4.512620">
						<ele>446</ele>
						<time>2025-06-26T10:02:25Z</time>
					</trkpt>
					<trkpt lat="45.733210" lon="4.512560">
						<ele>447</ele>
						<time>2025-06-26T10:02:42Z</time>
					</trkpt>
					<trkpt lat="45.733040" lon="4.512400">
						<ele>446</ele>
						<time>2025-06-26T10:03:09Z</time>
					</trkpt>
					<trkpt lat="45.733000" lon="4.512350">
						<ele>446</ele>
						<time>2025-06-26T10:03:16Z</time>
					</trkpt>
					<trkpt lat="45.732890" lon="4.512300">
						<ele>447</ele>
						<time>2025-06-26T10:03:32Z</time>
					</trkpt>
					<trkpt lat="45.732560" lon="4.512220">
						<ele>453</ele>
						<time>2025-06-26T10:04:16Z</time>
					</trkpt>
					<trkpt lat="45.732490" lon="4.512160">
						<ele>453</ele>
						<time>2025-06-26T10:04:27Z</time>
					</trkpt>
					<trkpt lat="45.732410" lon="4.512000">
						<ele>450</ele>
						<time>2025-06-26T10:04:46Z</time>
					</trkpt>
					<trkpt lat="45.732240" lon="4.511830">
						<ele>449</ele>
						<time>2025-06-26T10:05:13Z</time>
					</trkpt>
					<trkpt lat="45.731880" lon="4.511650">
						<ele>455</ele>
						<time>2025-06-26T10:06:04Z</time>
					</trkpt>
					<trkpt lat="45.731730" lon="4.511640">
						<ele>460</ele>
						<time>2025-06-26T10:06:24Z</time>
					</trkpt>
					<trkpt lat="45.731420" lon="4.511670">
						<ele>471</ele>
						<time>2025-06-26T10:07:06Z</time>
					</trkpt>
					<trkpt lat="45.731360" lon="4.511650">
						<ele>472</ele>
						<time>2025-06-26T10:07:14Z</time>
					</trkpt>
					<trkpt lat="45.731360" lon="4.511650">
						<ele>472</ele>
						<time>2025-06-26T10:07:14Z</time>
					</trkpt>
					<trkpt lat="45.731320" lon="4.511600">
						<ele>473</ele>
						<time>2025-06-26T10:07:21Z</time>
					</trkpt>
					<trkpt lat="45.731240" lon="4.511420">
						<ele>473</ele>
						<time>2025-06-26T10:07:41Z</time>
					</trkpt>
					<trkpt lat="45.730950" lon="4.511050">
						<ele>479</ele>
						<time>2025-06-26T10:08:33Z</time>
					</trkpt>
					<trkpt lat="45.730800" lon="4.510750">
						<ele>483</ele>
						<time>2025-06-26T10:09:07Z</time>
					</trkpt>
					<trkpt lat="45.729890" lon="4.508240">
						<ele>485</ele>
						<time>2025-06-26T10:13:31Z</time>
					</trkpt>
					<trkpt lat="45.729640" lon="4.507880">
						<ele>486</ele>
						<time>2025-06-26T10:14:18Z</time>
					</trkpt>
					<trkpt lat="45.729190" lon="4.507350">
						<ele>495</ele>
						<time>2025-06-26T10:15:36Z</time>
					</trkpt>
					<trkpt lat="45.728930" lon="4.507120">
						<ele>496</ele>
						<time>2025-06-26T10:16:16Z</time>
					</trkpt>
					<trkpt lat="45.728700" lon="4.507020">
						<ele>499</ele>
						<time>2025-06-26T10:16:48Z</time>
					</trkpt>
					<trkpt lat="45.728450" lon="4.507020">
						<ele>503</ele>
						<time>2025-06-26T10:17:22Z</time>
					</trkpt>
					<trkpt lat="45.727920" lon="4.507140">
						<ele>507</ele>
						<time>2025-06-26T10:18:33Z</time>
					</trkpt>
					<trkpt lat="45.727900" lon="4.507140">
						<ele>507</ele>
						<time>2025-06-26T10:18:36Z</time>
					</trkpt>
					<trkpt lat="45.727540" lon="4.507010">
						<ele>507</ele>
						<time>2025-06-26T10:19:26Z</time>
					</trkpt>
					<trkpt lat="45.727390" lon="4.506920">
						<ele>508</ele>
						<time>2025-06-26T10:19:47Z</time>
					</trkpt>
					<trkpt lat="45.727120" lon="4.506580">
						<ele>509</ele>
						<time>2025-06-26T10:20:35Z</time>
					</trkpt>
					<trkpt lat="45.726740" lon="4.506050">
						<ele>510</ele>
						<time>2025-06-26T10:21:46Z</time>
					</trkpt>
					<trkpt lat="45.726720" lon="4.505930">
						<ele>510</ele>
						<time>2025-06-26T10:21:58Z</time>
					</trkpt>
					<trkpt lat="45.726600" lon="4.505630">
						<ele>510</ele>
						<time>2025-06-26T10:22:30Z</time>
					</trkpt>
					<trkpt lat="45.726510" lon="4.505390">
						<ele>509</ele>
						<time>2025-06-26T10:22:55Z</time>
					</trkpt>
					<trkpt lat="45.726430" lon="4.505160">
						<ele>509</ele>
						<time>2025-06-26T10:23:19Z</time>
					</trkpt>
					<trkpt lat="45.726360" lon="4.505010">
						<ele>510</ele>
						<time>2025-06-26T10:23:36Z</time>
					</trkpt>
					<trkpt lat="45.726440" lon="4.504620">
						<ele>509</ele>
						<time>2025-06-26T10:24:14Z</time>
					</trkpt>
					<trkpt lat="45.726540" lon="4.504390">
						<ele>508</ele>
						<time>2025-06-26T10:24:39Z</time>
					</trkpt>
					<trkpt lat="45.726740" lon="4.504130">
						<ele>505</ele>
						<time>2025-06-26T10:25:15Z</time>
					</trkpt>
					<trkpt lat="45.726900" lon="4.503950">
						<ele>501</ele>
						<time>2025-06-26T10:25:42Z</time>
					</trkpt>
					<trkpt lat="45.727010" lon="4.503750">
						<ele>497</ele>
						<time>2025-06-26T10:26:06Z</time>
					</trkpt>
					<trkpt lat="45.727030" lon="4.503510">
						<ele>495</ele>
						<time>2025-06-26T10:26:28Z</time>
					</trkpt>
					<trkpt lat="45.727010" lon="4.503280">
						<ele>494</ele>
						<time>2025-06-26T10:26:50Z</time>
					</trkpt>
					<trkpt lat="45.726950" lon="4.502910">
						<ele>496</ele>
						<time>2025-06-26T10:27:25Z</time>
					</trkpt>
					<trkpt lat="45.727000" lon="4.502660">
						<ele>494</ele>
						<time>2025-06-26T10:27:50Z</time>
					</trkpt>
					<trkpt lat="45.727170" lon="4.502400">
						<ele>488</ele>
						<time>2025-06-26T10:28:23Z</time>
					</trkpt>
					<trkpt lat="45.727290" lon="4.502270">
						<ele>484</ele>
						<time>2025-06-26T10:28:43Z</time>
					</trkpt>
					<trkpt lat="45.727340" lon="4.502230">
						<ele>482</ele>
						<time>2025-06-26T10:28:51Z</time>
					</trkpt>
					<trkpt lat="45.727400" lon="4.502300">
						<ele>480</ele>
						<time>2025-06-26T10:29:01Z</time>
					</trkpt>
					<trkpt lat="45.727430" lon="4.502380">
						<ele>479</ele>
						<time>2025-06-26T10:29:09Z</time>
					</trkpt>
					<trkpt lat="45.727410" lon="4.502520">
						<ele>480</ele>
						<time>2025-06-26T10:29:23Z</time>
					</trkpt>
					<trkpt lat="45.727430" lon="4.502630">
						<ele>480</ele>
						<time>2025-06-26T10:29:33Z</time>
					</trkpt>
					<trkpt lat="45.727490" lon="4.502770">
						<ele>479</ele>
						<time>2025-06-26T10:29:48Z</time>
					</trkpt>
					<trkpt lat="45.727650" lon="4.503080">
						<ele>477</ele>
						<time>2025-06-26T10:30:24Z</time>
					</trkpt>
					<trkpt lat="45.727710" lon="4.503190">
						<ele>477</ele>
						<time>2025-06-26T10:30:37Z</time>
					</trkpt>
					<trkpt lat="45.727910" lon="4.503330">
						<ele>474</ele>
						<time>2025-06-26T10:31:07Z</time>
					</trkpt>
					<trkpt lat="45.728110" lon="4.503350">
						<ele>470</ele>
						<time>2025-06-26T10:31:34Z</time>
					</trkpt>
					<trkpt lat="45.728290" lon="4.503260">
						<ele>465</ele>
						<time>2025-06-26T10:31:59Z</time>
					</trkpt>
					<trkpt lat="45.728540" lon="4.503190">
						<ele>459</ele>
						<time>2025-06-26T10:32:33Z</time>
					</trkpt>
					<trkpt lat="45.728670" lon="4.503200">
						<ele>456</ele>
						<time>2025-06-26T10:32:51Z</time>
					</trkpt>
					<trkpt lat="45.728750" lon="4.503310">
						<ele>456</ele>
						<time>2025-06-26T10:33:05Z</time>
					</trkpt>
					<trkpt lat="45.728850" lon="4.503510">
						<ele>455</ele>
						<time>2025-06-26T10:33:28Z</time>
					</trkpt>
					<trkpt lat="45.728890" lon="4.503510">
						<ele>454</ele>
						<time>2025-06-26T10:33:34Z</time>
					</trkpt>
					<trkpt lat="45.728920" lon="4.503430">
						<ele>453</ele>
						<time>2025-06-26T10:33:42Z</time>
					</trkpt>
					<trkpt lat="45.728940" lon="4.503320">
						<ele>452</ele>
						<time>2025-06-26T10:33:53Z</time>
					</trkpt>
					<trkpt lat="45.728960" lon="4.503040">
						<ele>449</ele>
						<time>2025-06-26T10:34:19Z</time>
					</trkpt>
					<trkpt lat="45.728950" lon="4.502900">
						<ele>447</ele>
						<time>2025-06-26T10:34:32Z</time>
					</trkpt>
					<trkpt lat="45.728920" lon="4.502750">
						<ele>446</ele>
						<time>2025-06-26T10:34:47Z</time>
					</trkpt>
					<trkpt lat="45.728870" lon="4.502590">
						<ele>445</ele>
						<time>2025-06-26T10:35:03Z</time>
					</trkpt>
					<trkpt lat="45.728800" lon="4.502440">
						<ele>444</ele>
						<time>2025-06-26T10:35:20Z</time>
					</trkpt>
					<trkpt lat="45.728750" lon="4.502390">
						<ele>444</ele>
						<time>2025-06-26T10:35:28Z</time>
					</trkpt>
					<trkpt lat="45.728690" lon="4.502370">
						<ele>445</ele>
						<time>2025-06-26T10:35:36Z</time>
					</trkpt>
					<trkpt lat="45.728640" lon="4.502370">
						<ele>445</ele>
						<time>2025-06-26T10:35:43Z</time>
					</trkpt>
					<trkpt lat="45.728620" lon="4.502300">
						<ele>445</ele>
						<time>2025-06-26T10:35:50Z</time>
					</trkpt>
					<trkpt lat="45.728660" lon="4.502240">
						<ele>443</ele>
						<time>2025-06-26T10:35:58Z</time>
					</trkpt>
					<trkpt lat="45.728760" lon="4.502220">
						<ele>441</ele>
						<time>2025-06-26T10:36:11Z</time>
					</trkpt>
					<trkpt lat="45.728920" lon="4.502210">
						<ele>438</ele>
						<time>2025-06-26T10:36:32Z</time>
					</trkpt>
					<trkpt lat="45.729000" lon="4.502240">
						<ele>437</ele>
						<time>2025-06-26T10:36:43Z</time>
					</trkpt>
					<trkpt lat="45.729080" lon="4.502310">
						<ele>437</ele>
						<time>2025-06-26T10:36:56Z</time>
					</trkpt>
					<trkpt lat="45.729170" lon="4.502460">
						<ele>438</ele>
						<time>2025-06-26T10:37:14Z</time>
					</trkpt>
					<trkpt lat="45.729260" lon="4.502660">
						<ele>436</ele>
						<time>2025-06-26T10:37:37Z</time>
					</trkpt>
					<trkpt lat="45.729360" lon="4.503000">
						<ele>434</ele>
						<time>2025-06-26T10:38:11Z</time>
					</trkpt>
					<trkpt lat="45.729410" lon="4.503290">
						<ele>434</ele>
						<time>2025-06-26T10:38:39Z</time>
					</trkpt>
					<trkpt lat="45.729410" lon="4.503540">
						<ele>434</ele>
						<time>2025-06-26T10:39:02Z</time>
					</trkpt>
					<trkpt lat="45.729430" lon="4.503580">
						<ele>433</ele>
						<time>2025-06-26T10:39:07Z</time>
					</trkpt>
					<trkpt lat="45.729480" lon="4.503520">
						<ele>430</ele>
						<time>2025-06-26T10:39:15Z</time>
					</trkpt>
					<trkpt lat="45.729550" lon="4.503020">
						<ele>424</ele>
						<time>2025-06-26T10:40:03Z</time>
					</trkpt>
					<trkpt lat="45.729580" lon="4.502730">
						<ele>420</ele>
						<time>2025-06-26T10:40:30Z</time>
					</trkpt>
					<trkpt lat="45.729580" lon="4.502450">
						<ele>418</ele>
						<time>2025-06-26T10:40:56Z</time>
					</trkpt>
					<trkpt lat="45.729650" lon="4.501930">
						<ele>409</ele>
						<time>2025-06-26T10:41:46Z</time>
					</trkpt>
					<trkpt lat="45.729650" lon="4.501720">
						<ele>407</ele>
						<time>2025-06-26T10:42:05Z</time>
					</trkpt>
					<trkpt lat="45.729650" lon="4.501480">
						<ele>405</ele>
						<time>2025-06-26T10:42:27Z</time>
					</trkpt>
					<trkpt lat="45.729570" lon="4.501350">
						<ele>407</ele>
						<time>2025-06-26T10:42:44Z</time>
					</trkpt>
					<trkpt lat="45.729490" lon="4.501250">
						<ele>409</ele>
						<time>2025-06-26T10:42:58Z</time>
					</trkpt>
					<trkpt lat="45.729470" lon="4.501200">
						<ele>410</ele>
						<time>2025-06-26T10:43:03Z</time>
					</trkpt>
					<trkpt lat="45.729460" lon="4.501170">
						<ele>410</ele>
						<time>2025-06-26T10:43:06Z</time>
					</trkpt>
					<trkpt lat="45.729460" lon="4.501170">
						<ele>410</ele>
						<time>2025-06-26T10:43:06Z</time>
					</trkpt>
					<trkpt lat="45.729460" lon="4.501120">
						<ele>409</ele>
						<time>2025-06-26T10:43:11Z</time>
					</trkpt>
					<trkpt lat="45.729510" lon="4.501040">
						<ele>407</ele>
						<time>2025-06-26T10:43:21Z</time>
					</trkpt>
					<trkpt lat="45.729630" lon="4.500880">
						<ele>402</ele>
						<time>2025-06-26T10:43:43Z</time>
					</trkpt>
					<trkpt lat="45.729720" lon="4.500800">
						<ele>399</ele>
						<time>2025-06-26T10:43:57Z</time>
					</trkpt>
					<trkpt lat="45.729770" lon="4.500780">
						<ele>398</ele>
						<time>2025-06-26T10:44:04Z</time>
					</trkpt>
					<trkpt lat="45.729870" lon="4.500750">
						<ele>395</ele>
						<time>2025-06-26T10:44:18Z</time>
					</trkpt>
					<trkpt lat="45.730060" lon="4.500530">
						<ele>392</ele>
						<time>2025-06-26T10:44:50Z</time>
					</trkpt>
					<trkpt lat="45.730140" lon="4.500420">
						<ele>394</ele>
						<time>2025-06-26T10:45:05Z</time>
					</trkpt>
					<trkpt lat="45.730180" lon="4.500340">
						<ele>395</ele>
						<time>2025-06-26T10:45:14Z</time>
					</trkpt>
					<trkpt lat="45.730240" lon="4.500230">
						<ele>396</ele>
						<time>2025-06-26T10:45:27Z</time>
					</trkpt>
					<trkpt lat="45.730230" lon="4.500170">
						<ele>396</ele>
						<time>2025-06-26T10:45:33Z</time>
					</trkpt>
					<trkpt lat="45.729920" lon="4.499410">
						<ele>399</ele>
						<time>2025-06-26T10:46:55Z</time>
					</trkpt>
					<trkpt lat="45.729950" lon="4.499270">
						<ele>400</ele>
						<time>2025-06-26T10:47:09Z</time>
					</trkpt>
					<trkpt lat="45.729870" lon="4.499220">
						<ele>400</ele>
						<time>2025-06-26T10:47:20Z</time>
					</trkpt>
					<trkpt lat="45.729950" lon="4.499270">
						<ele>400</ele>
						<time>2025-06-26T10:47:32Z</time>
					</trkpt>
					<trkpt lat="45.729980" lon="4.499200">
						<ele>401</ele>
						<time>2025-06-26T10:47:40Z</time>
					</trkpt>
					<trkpt lat="45.730020" lon="4.499100">
						<ele>403</ele>
						<time>2025-06-26T10:47:50Z</time>
					</trkpt>
					<trkpt lat="45.730070" lon="4.499070">
						<ele>403</ele>
						<time>2025-06-26T10:47:57Z</time>
					</trkpt>
					<trkpt lat="45.730090" lon="4.499060">
						<ele>404</ele>
						<time>2025-06-26T10:48:00Z</time>
					</trkpt>
					<trkpt lat="45.730150" lon="4.499060">
						<ele>404</ele>
						<time>2025-06-26T10:48:08Z</time>
					</trkpt>
					<trkpt lat="45.730400" lon="4.499170">
						<ele>403</ele>
						<time>2025-06-26T10:48:43Z</time>
					</trkpt>
					<trkpt lat="45.730460" lon="4.499160">
						<ele>403</ele>
						<time>2025-06-26T10:48:51Z</time>
					</trkpt>
					<trkpt lat="45.730540" lon="4.499080">
						<ele>405</ele>
						<time>2025-06-26T10:49:04Z</time>
					</trkpt>
					<trkpt lat="45.730600" lon="4.498980">
						<ele>406</ele>
						<time>2025-06-26T10:49:17Z</time>
					</trkpt>
					<trkpt lat="45.730690" lon="4.498700">
						<ele>410</ele>
						<time>2025-06-26T10:49:45Z</time>
					</trkpt>
					<trkpt lat="45.730990" lon="4.498200">
						<ele>414</ele>
						<time>2025-06-26T10:50:47Z</time>
					</trkpt>
					<trkpt lat="45.731120" lon="4.497950">
						<ele>416</ele>
						<time>2025-06-26T10:51:16Z</time>
					</trkpt>
					<trkpt lat="45.731270" lon="4.497430">
						<ele>421</ele>
						<time>2025-06-26T10:52:08Z</time>
					</trkpt>
					<trkpt lat="45.731320" lon="4.497050">
						<ele>427</ele>
						<time>2025-06-26T10:52:44Z</time>
					</trkpt>
					<trkpt lat="45.731300" lon="4.496890">
						<ele>430</ele>
						<time>2025-06-26T10:52:59Z</time>
					</trkpt>
					<trkpt lat="45.731320" lon="4.496820">
						<ele>431</ele>
						<time>2025-06-26T10:53:06Z</time>
					</trkpt>
					<trkpt lat="45.731320" lon="4.496820">
						<ele>431</ele>
						<time>2025-06-26T10:53:06Z</time>
					</trkpt>
					<trkpt lat="45.731460" lon="4.496880">
						<ele>428</ele>
						<time>2025-06-26T10:53:26Z</time>
					</trkpt>
					<trkpt lat="45.731580" lon="4.496990">
						<ele>424</ele>
						<time>2025-06-26T10:53:45Z</time>
					</trkpt>
					<trkpt lat="45.731710" lon="4.497210">
						<ele>419</ele>
						<time>2025-06-26T10:54:12Z</time>
					</trkpt>
					<trkpt lat="45.731790" lon="4.497250">
						<ele>419</ele>
						<time>2025-06-26T10:54:23Z</time>
					</trkpt>
					<trkpt lat="45.731880" lon="4.497270">
						<ele>419</ele>
						<time>2025-06-26T10:54:35Z</time>
					</trkpt>
					<trkpt lat="45.731930" lon="4.497220">
						<ele>420</ele>
						<time>2025-06-26T10:54:43Z</time>
					</trkpt>
					<trkpt lat="45.731940" lon="4.497160">
						<ele>422</ele>
						<time>2025-06-26T10:54:49Z</time>
					</trkpt>
					<trkpt lat="45.731720" lon="4.496020">
						<ele>440</ele>
						<time>2025-06-26T10:56:39Z</time>
					</trkpt>
					<trkpt lat="45.731530" lon="4.495520">
						<ele>445</ele>
						<time>2025-06-26T10:57:32Z</time>
					</trkpt>
					<trkpt lat="45.731430" lon="4.495130">
						<ele>449</ele>
						<time>2025-06-26T10:58:11Z</time>
					</trkpt>
					<trkpt lat="45.731370" lon="4.494590">
						<ele>453</ele>
						<time>2025-06-26T10:59:02Z</time>
					</trkpt>
					<trkpt lat="45.731350" lon="4.494220">
						<ele>456</ele>
						<time>2025-06-26T10:59:36Z</time>
					</trkpt>
					<trkpt lat="45.731360" lon="4.493740">
						<ele>460</ele>
						<time>2025-06-26T11:00:21Z</time>
					</trkpt>
					<trkpt lat="45.731430" lon="4.493320">
						<ele>464</ele>
						<time>2025-06-26T11:01:01Z</time>
					</trkpt>
					<trkpt lat="45.731450" lon="4.492960">
						<ele>466</ele>
						<time>2025-06-26T11:01:35Z</time>
					</trkpt>
					<trkpt lat="45.731490" lon="4.492760">
						<ele>468</ele>
						<time>2025-06-26T11:01:54Z</time>
					</trkpt>
					<trkpt lat="45.731580" lon="4.492630">
						<ele>471</ele>
						<time>2025-06-26T11:02:11Z</time>
					</trkpt>
					<trkpt lat="45.731930" lon="4.491970">
						<ele>484</ele>
						<time>2025-06-26T11:03:29Z</time>
					</trkpt>
					<trkpt lat="45.731990" lon="4.491760">
						<ele>487</ele>
						<time>2025-06-26T11:03:50Z</time>
					</trkpt>
					<trkpt lat="45.732040" lon="4.491500">
						<ele>491</ele>
						<time>2025-06-26T11:04:15Z</time>
					</trkpt>
					<trkpt lat="45.732020" lon="4.491320">
						<ele>492</ele>
						<time>2025-06-26T11:04:32Z</time>
					</trkpt>
					<trkpt lat="45.732010" lon="4.491250">
						<ele>492</ele>
						<time>2025-06-26T11:04:39Z</time>
					</trkpt>
					<trkpt lat="45.732030" lon="4.491190">
						<ele>494</ele>
						<time>2025-06-26T11:04:45Z</time>
					</trkpt>
					<trkpt lat="45.732020" lon="4.491120">
						<ele>494</ele>
						<time>2025-06-26T11:04:51Z</time>
					</trkpt>
					<trkpt lat="45.731970" lon="4.490910">
						<ele>495</ele>
						<time>2025-06-26T11:05:12Z</time>
					</trkpt>
					<trkpt lat="45.731960" lon="4.490670">
						<ele>496</ele>
						<time>2025-06-26T11:05:35Z</time>
					</trkpt>
					<trkpt lat="45.731980" lon="4.490440">
						<ele>496</ele>
						<time>2025-06-26T11:05:56Z</time>
					</trkpt>
					<trkpt lat="45.732030" lon="4.490320">
						<ele>498</ele>
						<time>2025-06-26T11:06:09Z</time>
					</trkpt>
					<trkpt lat="45.732110" lon="4.490210">
						<ele>500</ele>
						<time>2025-06-26T11:06:24Z</time>
					</trkpt>
					<trkpt lat="45.732290" lon="4.490070">
						<ele>506</ele>
						<time>2025-06-26T11:06:51Z</time>
					</trkpt>
					<trkpt lat="45.732590" lon="4.489800">
						<ele>512</ele>
						<time>2025-06-26T11:07:39Z</time>
					</trkpt>
					<trkpt lat="45.732970" lon="4.489280">
						<ele>517</ele>
						<time>2025-06-26T11:08:49Z</time>
					</trkpt>
					<trkpt lat="45.733350" lon="4.488590">
						<ele>526</ele>
						<time>2025-06-26T11:10:11Z</time>
					</trkpt>
					<trkpt lat="45.733560" lon="4.488380">
						<ele>527</ele>
						<time>2025-06-26T11:10:45Z</time>
					</trkpt>
					<trkpt lat="45.733760" lon="4.488110">
						<ele>530</ele>
						<time>2025-06-26T11:11:21Z</time>
					</trkpt>
					<trkpt lat="45.733810" lon="4.488160">
						<ele>529</ele>
						<time>2025-06-26T11:11:29Z</time>
					</trkpt>
					<trkpt lat="45.733840" lon="4.488180">
						<ele>529</ele>
						<time>2025-06-26T11:11:34Z</time>
					</trkpt>
					<trkpt lat="45.734290" lon="4.488210">
						<ele>528</ele>
						<time>2025-06-26T11:12:34Z</time>
					</trkpt>
					<trkpt lat="45.734760" lon="4.487940">
						<ele>523</ele>
						<time>2025-06-26T11:13:42Z</time>
					</trkpt>
					<trkpt lat="45.735250" lon="4.489010">
						<ele>510</ele>
						<time>2025-06-26T11:15:41Z</time>
					</trkpt>
					<trkpt lat="45.735360" lon="4.489100">
						<ele>506</ele>
						<time>2025-06-26T11:15:58Z</time>
					</trkpt>
					<trkpt lat="45.735410" lon="4.489220">
						<ele>505</ele>
						<time>2025-06-26T11:16:11Z</time>
					</trkpt>
					<trkpt lat="45.735460" lon="4.489280">
						<ele>504</ele>
						<time>2025-06-26T11:16:19Z</time>
					</trkpt>
					<trkpt lat="45.735500" lon="4.489300">
						<ele>503</ele>
						<time>2025-06-26T11:16:25Z</time>
					</trkpt>
					<trkpt lat="45.735580" lon="4.489270">
						<ele>501</ele>
						<time>2025-06-26T11:16:36Z</time>
					</trkpt>
					<trkpt lat="45.735920" lon="4.489010">
						<ele>492</ele>
						<time>2025-06-26T11:17:28Z</time>
					</trkpt>
					<trkpt lat="45.736470" lon="4.488690">
						<ele>485</ele>
						<time>2025-06-26T11:18:47Z</time>
					</trkpt>
					<trkpt lat="45.736680" lon="4.488670">
						<ele>482</ele>
						<time>2025-06-26T11:19:15Z</time>
					</trkpt>
					<trkpt lat="45.737350" lon="4.488830">
						<ele>472</ele>
						<time>2025-06-26T11:20:45Z</time>
					</trkpt>
					<trkpt lat="45.737780" lon="4.488920">
						<ele>471</ele>
						<time>2025-06-26T11:21:43Z</time>
					</trkpt>
					<trkpt lat="45.737780" lon="4.488920">
						<ele>471</ele>
						<time>2025-06-26T11:21:43Z</time>
					</trkpt>
					<trkpt lat="45.737870" lon="4.489000">
						<ele>472</ele>
						<time>2025-06-26T11:21:58Z</time>
					</trkpt>
					<trkpt lat="45.738020" lon="4.489190">
						<ele>472</ele>
						<time>2025-06-26T11:22:24Z</time>
					</trkpt>
					<trkpt lat="45.738130" lon="4.489450">
						<ele>473</ele>
						<time>2025-06-26T11:22:53Z</time>
					</trkpt>
					<trkpt lat="45.738170" lon="4.489520">
						<ele>473</ele>
						<time>2025-06-26T11:23:01Z</time>
					</trkpt>
					<trkpt lat="45.738340" lon="4.489750">
						<ele>474</ele>
						<time>2025-06-26T11:23:32Z</time>
					</trkpt>
					<trkpt lat="45.738400" lon="4.489810">
						<ele>475</ele>
						<time>2025-06-26T11:23:42Z</time>
					</trkpt>
					<trkpt lat="45.738460" lon="4.489790">
						<ele>476</ele>
						<time>2025-06-26T11:23:50Z</time>
					</trkpt>
					<trkpt lat="45.738790" lon="4.489500">
						<ele>479</ele>
						<time>2025-06-26T11:24:42Z</time>
					</trkpt>
					<trkpt lat="45.738910" lon="4.489470">
						<ele>481</ele>
						<time>2025-06-26T11:24:58Z</time>
					</trkpt>
					<trkpt lat="45.739010" lon="4.489510">
						<ele>482</ele>
						<time>2025-06-26T11:25:12Z</time>
					</trkpt>
					<trkpt lat="45.738960" lon="4.489570">
						<ele>482</ele>
						<time>2025-06-26T11:25:21Z</time>
					</trkpt>
					<trkpt lat="45.739010" lon="4.489510">
						<ele>482</ele>
						<time>2025-06-26T11:25:29Z</time>
					</trkpt>
					<trkpt lat="45.739050" lon="4.489820">
						<ele>484</ele>
						<time>2025-06-26T11:25:59Z</time>
					</trkpt>
					<trkpt lat="45.739090" lon="4.490030">
						<ele>486</ele>
						<time>2025-06-26T11:26:19Z</time>
					</trkpt>
					<trkpt lat="45.739140" lon="4.490170">
						<ele>488</ele>
						<time>2025-06-26T11:26:34Z</time>
					</trkpt>
					<trkpt lat="45.739200" lon="4.490250">
						<ele>489</ele>
						<time>2025-06-26T11:26:45Z</time>
					</trkpt>
					<trkpt lat="45.739260" lon="4.490290">
						<ele>491</ele>
						<time>2025-06-26T11:26:53Z</time>
					</trkpt>
					<trkpt lat="45.739340" lon="4.490300">
						<ele>492</ele>
						<time>2025-06-26T11:27:04Z</time>
					</trkpt>
					<trkpt lat="45.739530" lon="4.490300">
						<ele>495</ele>
						<time>2025-06-26T11:27:30Z</time>
					</trkpt>
					<trkpt lat="45.739830" lon="4.490330">
						<ele>500</ele>
						<time>2025-06-26T11:28:10Z</time>
					</trkpt>
					<trkpt lat="45.739980" lon="4.490300">
						<ele>503</ele>
						<time>2025-06-26T11:28:30Z</time>
					</trkpt>
					<trkpt lat="45.740430" lon="4.490190">
						<ele>509</ele>
						<time>2025-06-26T11:29:31Z</time>
					</trkpt>
					<trkpt lat="45.740790" lon="4.490170">
						<ele>515</ele>
						<time>2025-06-26T11:30:19Z</time>
					</trkpt>
					<trkpt lat="45.741150" lon="4.490010">
						<ele>516</ele>
						<time>2025-06-26T11:31:09Z</time>
					</trkpt>
					<trkpt lat="45.741200" lon="4.490020">
						<ele>517</ele>
						<time>2025-06-26T11:31:16Z</time>
					</trkpt>
					<trkpt lat="45.741360" lon="4.490420">
						<ele>521</ele>
						<time>2025-06-26T11:31:59Z</time>
					</trkpt>
					<trkpt lat="45.741460" lon="4.490960">
						<ele>526</ele>
						<time>2025-06-26T11:32:51Z</time>
					</trkpt>
					<trkpt lat="45.741520" lon="4.491080">
						<ele>526</ele>
						<time>2025-06-26T11:33:05Z</time>
					</trkpt>
					<trkpt lat="45.741580" lon="4.491180">
						<ele>527</ele>
						<time>2025-06-26T11:33:17Z</time>
					</trkpt>
					<trkpt lat="45.741700" lon="4.491250">
						<ele>528</ele>
						<time>2025-06-26T11:33:34Z</time>
					</trkpt>
					<trkpt lat="45.741770" lon="4.491260">
						<ele>528</ele>
						<time>2025-06-26T11:33:44Z</time>
					</trkpt>
					<trkpt lat="45.741830" lon="4.491240">
						<ele>528</ele>
						<time>2025-06-26T11:33:52Z</time>
					</trkpt>
					<trkpt lat="45.741850" lon="4.491230">
						<ele>528</ele>
						<time>2025-06-26T11:33:55Z</time>
					</trkpt>
					<trkpt lat="45.741830" lon="4.491240">
						<ele>528</ele>
						<time>2025-06-26T11:33:57Z</time>
					</trkpt>
					<trkpt lat="45.741770" lon="4.491260">
						<ele>528</ele>
						<time>2025-06-26T11:34:06Z</time>
					</trkpt>
					<trkpt lat="45.741850" lon="4.491360">
						<ele>528</ele>
						<time>2025-06-26T11:34:20Z</time>
					</trkpt>
					<trkpt lat="45.741950" lon="4.491370">
						<ele>529</ele>
						<time>2025-06-26T11:34:33Z</time>
					</trkpt>
					<trkpt lat="45.742150" lon="4.491310">
						<ele>529</ele>
						<time>2025-06-26T11:35:01Z</time>
					</trkpt>
					<trkpt lat="45.742300" lon="4.491370">
						<ele>530</ele>
						<time>2025-06-26T11:35:21Z</time>
					</trkpt>
					<trkpt lat="45.742440" lon="4.491600">
						<ele>531</ele>
						<time>2025-06-26T11:35:50Z</time>
					</trkpt>
					<trkpt lat="45.742830" lon="4.492000">
						<ele>532</ele>
						<time>2025-06-26T11:36:54Z</time>
					</trkpt>
					<trkpt lat="45.742890" lon="4.492160">
						<ele>532</ele>
						<time>2025-06-26T11:37:11Z</time>
					</trkpt>
					<trkpt lat="45.743010" lon="4.492400">
						<ele>532</ele>
						<time>2025-06-26T11:37:38Z</time>
					</trkpt>
					<trkpt lat="45.743100" lon="4.492660">
						<ele>533</ele>
						<time>2025-06-26T11:38:05Z</time>
					</trkpt>
					<trkpt lat="45.743140" lon="4.492900">
						<ele>534</ele>
						<time>2025-06-26T11:38:28Z</time>
					</trkpt>
					<trkpt lat="45.743130" lon="4.493120">
						<ele>534</ele>
						<time>2025-06-26T11:38:49Z</time>
					</trkpt>
					<trkpt lat="45.743100" lon="4.493370">
						<ele>534</ele>
						<time>2025-06-26T11:39:12Z</time>
					</trkpt>
					<trkpt lat="45.743040" lon="4.493720">
						<ele>538</ele>
						<time>2025-06-26T11:39:46Z</time>
					</trkpt>
					<trkpt lat="45.742960" lon="4.493870">
						<ele>539</ele>
						<time>2025-06-26T11:40:03Z</time>
					</trkpt>
					<trkpt lat="45.742760" lon="4.494070">
						<ele>538</ele>
						<time>2025-06-26T11:40:36Z</time>
					</trkpt>
					<trkpt lat="45.742540" lon="4.494270">
						<ele>539</ele>
						<time>2025-06-26T11:41:11Z</time>
					</trkpt>
					<trkpt lat="45.742400" lon="4.494440">
						<ele>541</ele>
						<time>2025-06-26T11:41:35Z</time>
					</trkpt>
					<trkpt lat="45.742190" lon="4.494860">
						<ele>546</ele>
						<time>2025-06-26T11:42:23Z</time>
					</trkpt>
					<trkpt lat="45.742060" lon="4.495090">
						<ele>548</ele>
						<time>2025-06-26T11:42:51Z</time>
					</trkpt>
					<trkpt lat="45.741910" lon="4.495440">
						<ele>551</ele>
						<time>2025-06-26T11:43:29Z</time>
					</trkpt>
					<trkpt lat="45.741720" lon="4.495970">
						<ele>556</ele>
						<time>2025-06-26T11:44:25Z</time>
					</trkpt>
					<trkpt lat="45.741450" lon="4.496850">
						<ele>562</ele>
						<time>2025-06-26T11:45:54Z</time>
					</trkpt>
					<trkpt lat="45.741390" lon="4.496980">
						<ele>562</ele>
						<time>2025-06-26T11:46:09Z</time>
					</trkpt>
					<trkpt lat="45.741040" lon="4.497400">
						<ele>561</ele>
						<time>2025-06-26T11:47:10Z</time>
					</trkpt>
					<trkpt lat="45.740520" lon="4.498060">
						<ele>565</ele>
						<time>2025-06-26T11:48:42Z</time>
					</trkpt>
					<trkpt lat="45.740200" lon="4.498400">
						<ele>570</ele>
						<time>2025-06-26T11:49:35Z</time>
					</trkpt>
					<trkpt lat="45.739880" lon="4.498760">
						<ele>576</ele>
						<time>2025-06-26T11:50:30Z</time>
					</trkpt>
					<trkpt lat="45.739730" lon="4.498920">
						<ele>579</ele>
						<time>2025-06-26T11:50:55Z</time>
					</trkpt>
					<trkpt lat="45.739390" lon="4.499050">
						<ele>579</ele>
						<time>2025-06-26T11:51:42Z</time>
					</trkpt>
					<trkpt lat="45.739290" lon="4.499150">
						<ele>580</ele>
						<time>2025-06-26T11:51:58Z</time>
					</trkpt>
					<trkpt lat="45.739240" lon="4.499230">
						<ele>581</ele>
						<time>2025-06-26T11:52:08Z</time>
					</trkpt>
					<trkpt lat="45.739220" lon="4.499340">
						<ele>582</ele>
						<time>2025-06-26T11:52:19Z</time>
					</trkpt>
					<trkpt lat="45.739270" lon="4.499480">
						<ele>585</ele>
						<time>2025-06-26T11:52:33Z</time>
					</trkpt>
					<trkpt lat="45.739320" lon="4.499590">
						<ele>587</ele>
						<time>2025-06-26T11:52:45Z</time>
					</trkpt>
					<trkpt lat="45.739400" lon="4.499870">
						<ele>591</ele>
						<time>2025-06-26T11:53:14Z</time>
					</trkpt>
					<trkpt lat="45.739440" lon="4.500640">
						<ele>594</ele>
						<time>2025-06-26T11:54:26Z</time>
					</trkpt>
					<trkpt lat="45.739470" lon="4.500870">
						<ele>594</ele>
						<time>2025-06-26T11:54:47Z</time>
					</trkpt>
					<trkpt lat="45.739640" lon="4.501770">
						<ele>588</ele>
						<time>2025-06-26T11:56:14Z</time>
					</trkpt>
					<trkpt lat="45.739940" lon="4.501780">
						<ele>585</ele>
						<time>2025-06-26T11:56:54Z</time>
					</trkpt>
					<trkpt lat="45.740160" lon="4.501660">
						<ele>581</ele>
						<time>2025-06-26T11:57:26Z</time>
					</trkpt>
					<trkpt lat="45.740300" lon="4.501540">
						<ele>578</ele>
						<time>2025-06-26T11:57:47Z</time>
					</trkpt>
					<trkpt lat="45.740590" lon="4.501230">
						<ele>574</ele>
						<time>2025-06-26T11:58:36Z</time>
					</trkpt>
					<trkpt lat="45.740740" lon="4.501130">
						<ele>572</ele>
						<time>2025-06-26T11:58:58Z</time>
					</trkpt>
					<trkpt lat="45.740880" lon="4.501010">
						<ele>570</ele>
						<time>2025-06-26T11:59:20Z</time>
					</trkpt>
					<trkpt lat="45.741090" lon="4.500920">
						<ele>564</ele>
						<time>2025-06-26T11:59:49Z</time>
					</trkpt>
					<trkpt lat="45.741280" lon="4.500890">
						<ele>558</ele>
						<time>2025-06-26T12:00:14Z</time>
					</trkpt>
					<trkpt lat="45.741350" lon="4.500880">
						<ele>556</ele>
						<time>2025-06-26T12:00:24Z</time>
					</trkpt>
					<trkpt lat="45.741140" lon="4.501540">
						<ele>555</ele>
						<time>2025-06-26T12:01:31Z</time>
					</trkpt>
					<trkpt lat="45.741000" lon="4.501840">
						<ele>555</ele>
						<time>2025-06-26T12:02:05Z</time>
					</trkpt>
					<trkpt lat="45.740710" lon="4.502600">
						<ele>553</ele>
						<time>2025-06-26T12:03:26Z</time>
					</trkpt>
					<trkpt lat="45.740360" lon="4.503150">
						<ele>556</ele>
						<time>2025-06-26T12:04:35Z</time>
					</trkpt>
					<trkpt lat="45.740020" lon="4.503880">
						<ele>555</ele>
						<time>2025-06-26T12:05:57Z</time>
					</trkpt>
					<trkpt lat="45.739770" lon="4.504160">
						<ele>550</ele>
						<time>2025-06-26T12:06:39Z</time>
					</trkpt>
					<trkpt lat="45.739310" lon="4.503980">
						<ele>553</ele>
						<time>2025-06-26T12:07:43Z</time>
					</trkpt>
					<trkpt lat="45.738200" lon="4.503420">
						<ele>562</ele>
						<time>2025-06-26T12:10:20Z</time>
					</trkpt>
					<trkpt lat="45.737490" lon="4.503230">
						<ele>562</ele>
						<time>2025-06-26T12:11:56Z</time>
					</trkpt>
					<trkpt lat="45.736710" lon="4.503120">
						<ele>555</ele>
						<time>2025-06-26T12:13:41Z</time>
					</trkpt>
					<trkpt lat="45.736350" lon="4.503020">
						<ele>547</ele>
						<time>2025-06-26T12:14:29Z</time>
					</trkpt>
					<trkpt lat="45.735910" lon="4.503100">
						<ele>533</ele>
						<time>2025-06-26T12:15:29Z</time>
					</trkpt>
					<trkpt lat="45.735860" lon="4.503150">
						<ele>531</ele>
						<time>2025-06-26T12:15:37Z</time>
					</trkpt>
					<trkpt lat="45.735990" lon="4.503540">
						<ele>528</ele>
						<time>2025-06-26T12:16:17Z</time>
					</trkpt>
					<trkpt lat="45.735970" lon="4.503680">
						<ele>525</ele>
						<time>2025-06-26T12:16:30Z</time>
					</trkpt>
					<trkpt lat="45.735860" lon="4.503840">
						<ele>520</ele>
						<time>2025-06-26T12:16:51Z</time>
					</trkpt>
					<trkpt lat="45.735670" lon="4.503980">
						<ele>507</ele>
						<time>2025-06-26T12:17:20Z</time>
					</trkpt>
					<trkpt lat="45.735590" lon="4.504090">
						<ele>501</ele>
						<time>2025-06-26T12:17:35Z</time>
					</trkpt>
					<trkpt lat="45.735560" lon="4.504270">
						<ele>495</ele>
						<time>2025-06-26T12:17:52Z</time>
					</trkpt>
					<trkpt lat="45.735610" lon="4.504460">
						<ele>494</ele>
						<time>2025-06-26T12:18:11Z</time>
					</trkpt>
					<trkpt lat="45.736340" lon="4.504530">
						<ele>506</ele>
						<time>2025-06-26T12:19:48Z</time>
					</trkpt>
					<trkpt lat="45.736920" lon="4.504740">
						<ele>499</ele>
						<time>2025-06-26T12:21:08Z</time>
					</trkpt>
					<trkpt lat="45.737190" lon="4.504900">
						<ele>493</ele>
						<time>2025-06-26T12:21:47Z</time>
					</trkpt>
					<trkpt lat="45.737520" lon="4.505000">
						<ele>490</ele>
						<time>2025-06-26T12:22:32Z</time>
					</trkpt>
					<trkpt lat="45.737720" lon="4.505030">
						<ele>492</ele>
						<time>2025-06-26T12:22:59Z</time>
					</trkpt>
					<trkpt lat="45.737870" lon="4.505000">
						<ele>495</ele>
						<time>2025-06-26T12:23:19Z</time>
					</trkpt>
					<trkpt lat="45.738110" lon="4.505210">
						<ele>491</ele>
						<time>2025-06-26T12:23:57Z</time>
					</trkpt>
					<trkpt lat="45.738560" lon="4.505550">
						<ele>487</ele>
						<time>2025-06-26T12:25:05Z</time>
					</trkpt>
					<trkpt lat="45.738670" lon="4.505680">
						<ele>486</ele>
						<time>2025-06-26T12:25:24Z</time>
					</trkpt>
					<trkpt lat="45.738810" lon="4.505970">
						<ele>480</ele>
						<time>2025-06-26T12:25:57Z</time>
					</trkpt>
					<trkpt lat="45.739200" lon="4.506580">
						<ele>471</ele>
						<time>2025-06-26T12:27:14Z</time>
					</trkpt>
					<trkpt lat="45.739230" lon="4.506620">
						<ele>470</ele>
						<time>2025-06-26T12:27:19Z</time>
					</trkpt>
					<trkpt lat="45.739430" lon="4.506840">
						<ele>466</ele>
						<time>2025-06-26T12:27:53Z</time>
					</trkpt>
					<trkpt lat="45.739700" lon="4.507090">
						<ele>462</ele>
						<time>2025-06-26T12:28:36Z</time>
					</trkpt>
					<trkpt lat="45.739920" lon="4.507230">
						<ele>461</ele>
						<time>2025-06-26T12:29:08Z</time>
					</trkpt>
					<trkpt lat="45.740230" lon="4.507230">
						<ele>465</ele>
						<time>2025-06-26T12:29:49Z</time>
					</trkpt>
					<trkpt lat="45.740230" lon="4.507230">
						<ele>465</ele>
						<time>2025-06-26T12:29:49Z</time>
					</trkpt>
					<trkpt lat="45.740310" lon="4.507330">
						<ele>464</ele>
						<time>2025-06-26T12:30:03Z</time>
					</trkpt>
					<trkpt lat="45.740480" lon="4.507560">
						<ele>462</ele>
						<time>2025-06-26T12:30:34Z</time>
					</trkpt>
					<trkpt lat="45.740770" lon="4.508000">
						<ele>459</ele>
						<time>2025-06-26T12:31:31Z</time>
					</trkpt>
					<trkpt lat="45.741140" lon="4.508210">
						<ele>466</ele>
						<time>2025-06-26T12:32:24Z</time>
					</trkpt>
					<trkpt lat="45.741210" lon="4.508290">
						<ele>466</ele>
						<time>2025-06-26T12:32:36Z</time>
					</trkpt>
					<trkpt lat="45.741260" lon="4.508470">
						<ele>466</ele>
						<time>2025-06-26T12:32:54Z</time>
					</trkpt>
					<trkpt lat="45.741310" lon="4.508680">
						<ele>466</ele>
						<time>2025-06-26T12:33:15Z</time>
					</trkpt>
					<trkpt lat="45.741510" lon="4.509150">
						<ele>469</ele>
						<time>2025-06-26T12:34:06Z</time>
					</trkpt>
					<trkpt lat="45.741530" lon="4.509200">
						<ele>470</ele>
						<time>2025-06-26T12:34:11Z</time>
					</trkpt>
					<trkpt lat="45.741580" lon="4.509360">
						<ele>470</ele>
						<time>2025-06-26T12:34:28Z</time>
					</trkpt>
					<trkpt lat="45.741670" lon="4.509720">
						<ele>468</ele>
						<time>2025-06-26T12:35:03Z</time>
					</trkpt>
					<trkpt lat="45.741710" lon="4.509980">
						<ele>467</ele>
						<time>2025-06-26T12:35:28Z</time>
					</trkpt>
					<trkpt lat="45.741720" lon="4.510160">
						<ele>466</ele>
						<time>2025-06-26T12:35:45Z</time>
					</trkpt>
					<trkpt lat="45.741650" lon="4.510870">
						<ele>460</ele>
						<time>2025-06-26T12:36:52Z</time>
					</trkpt>
					<trkpt lat="45.741650" lon="4.511160">
						<ele>459</ele>
						<time>2025-06-26T12:37:19Z</time>
					</trkpt>
					<trkpt lat="45.741720" lon="4.511480">
						<ele>460</ele>
						<time>2025-06-26T12:37:50Z</time>
					</trkpt>
					<trkpt lat="45.741720" lon="4.511720">
						<ele>460</ele>
						<time>2025-06-26T12:38:12Z</time>
					</trkpt>
					<trkpt lat="45.741670" lon="4.511890">
						<ele>458</ele>
						<time>2025-06-26T12:38:29Z</time>
					</trkpt>
					<trkpt lat="45.741610" lon="4.512040">
						<ele>457</ele>
						<time>2025-06-26T12:38:45Z</time>
					</trkpt>
					<trkpt lat="45.741480" lon="4.512260">
						<ele>454</ele>
						<time>2025-06-26T12:39:12Z</time>
					</trkpt>
					<trkpt lat="45.741370" lon="4.512560">
						<ele>453</ele>
						<time>2025-06-26T12:39:44Z</time>
					</trkpt>
					<trkpt lat="45.741310" lon="4.512790">
						<ele>452</ele>
						<time>2025-06-26T12:40:07Z</time>
					</trkpt>
					<trkpt lat="45.741310" lon="4.513040">
						<ele>452</ele>
						<time>2025-06-26T12:40:30Z</time>
					</trkpt>
					<trkpt lat="45.741350" lon="4.513270">
						<ele>452</ele>
						<time>2025-06-26T12:40:52Z</time>
					</trkpt>
					<trkpt lat="45.741430" lon="4.513500">
						<ele>452</ele>
						<time>2025-06-26T12:41:16Z</time>
					</trkpt>
					<trkpt lat="45.741550" lon="4.513720">
						<ele>452</ele>
						<time>2025-06-26T12:41:42Z</time>
					</trkpt>
					<trkpt lat="45.741710" lon="4.513940">
						<ele>452</ele>
						<time>2025-06-26T12:42:12Z</time>
					</trkpt>
					<trkpt lat="45.741900" lon="4.514140">
						<ele>451</ele>
						<time>2025-06-26T12:42:43Z</time>
					</trkpt>
					<trkpt lat="45.742100" lon="4.514280">
						<ele>450</ele>
						<time>2025-06-26T12:43:13Z</time>
					</trkpt>
					<trkpt lat="45.742280" lon="4.514340">
						<ele>450</ele>
						<time>2025-06-26T12:43:37Z</time>
					</trkpt>
					<trkpt lat="45.742370" lon="4.514350">
						<ele>451</ele>
						<time>2025-06-26T12:43:49Z</time>
					</trkpt>
					<trkpt lat="45.742490" lon="4.514350">
						<ele>452</ele>
						<time>2025-06-26T12:44:05Z</time>
					</trkpt>
					<trkpt lat="45.742630" lon="4.514310">
						<ele>451</ele>
						<time>2025-06-26T12:44:25Z</time>
					</trkpt>
					<trkpt lat="45.743070" lon="4.514110">
						<ele>450</ele>
						<time>2025-06-26T12:45:26Z</time>
					</trkpt>
					<trkpt lat="45.743430" lon="4.513900">
						<ele>452</ele>
						<time>2025-06-26T12:46:18Z</time>
					</trkpt>
					<trkpt lat="45.743760" lon="4.513750">
						<ele>453</ele>
						<time>2025-06-26T12:47:04Z</time>
					</trkpt>
					<trkpt lat="45.744050" lon="4.513660">
						<ele>452</ele>
						<time>2025-06-26T12:47:44Z</time>
					</trkpt>
					<trkpt lat="45.744260" lon="4.513680">
						<ele>451</ele>
						<time>2025-06-26T12:48:12Z</time>
					</trkpt>
					<trkpt lat="45.744330" lon="4.513780">
						<ele>450</ele>
						<time>2025-06-26T12:48:25Z</time>
					</trkpt>
					<trkpt lat="45.744360" lon="4.514000">
						<ele>447</ele>
						<time>2025-06-26T12:48:46Z</time>
					</trkpt>
					<trkpt lat="45.744370" lon="4.514630">
						<ele>445</ele>
						<time>2025-06-26T12:49:45Z</time>
					</trkpt>
					<trkpt lat="45.744370" lon="4.515050">
						<ele>446</ele>
						<time>2025-06-26T12:50:24Z</time>
					</trkpt>
					<trkpt lat="45.744370" lon="4.515110">
						<ele>446</ele>
						<time>2025-06-26T12:50:29Z</time>
					</trkpt>
					<trkpt lat="45.744710" lon="4.514540">
						<ele>453</ele>
						<time>2025-06-26T12:51:39Z</time>
					</trkpt>
					<trkpt lat="45.744960" lon="4.514190">
						<ele>456</ele>
						<time>2025-06-26T12:52:26Z</time>
					</trkpt>
					<trkpt lat="45.745310" lon="4.513860">
						<ele>464</ele>
						<time>2025-06-26T12:53:22Z</time>
					</trkpt>
					<trkpt lat="45.745620" lon="4.513530">
						<ele>469</ele>
						<time>2025-06-26T12:54:13Z</time>
					</trkpt>
					<trkpt lat="45.745890" lon="4.513280">
						<ele>473</ele>
						<time>2025-06-26T12:54:56Z</time>
					</trkpt>
					<trkpt lat="45.746080" lon="4.513230">
						<ele>477</ele>
						<time>2025-06-26T12:55:22Z</time>
					</trkpt>
					<trkpt lat="45.746220" lon="4.513300">
						<ele>480</ele>
						<time>2025-06-26T12:55:42Z</time>
					</trkpt>
					<trkpt lat="45.746400" lon="4.513430">
						<ele>485</ele>
						<time>2025-06-26T12:56:09Z</time>
					</trkpt>
					<trkpt lat="45.746610" lon="4.513610">
						<ele>491</ele>
						<time>2025-06-26T12:56:41Z</time>
					</trkpt>
					<trkpt lat="45.746760" lon="4.513860">
						<ele>496</ele>
						<time>2025-06-26T12:57:12Z</time>
					</trkpt>
					<trkpt lat="45.746830" lon="4.513830">
						<ele>497</ele>
						<time>2025-06-26T12:57:22Z</time>
					</trkpt>
					<trkpt lat="45.746850" lon="4.513700">
						<ele>497</ele>
						<time>2025-06-26T12:57:34Z</time>
					</trkpt>
					<trkpt lat="45.746830" lon="4.513450">
						<ele>495</ele>
						<time>2025-06-26T12:57:58Z</time>
					</trkpt>
					<trkpt lat="45.746780" lon="4.513150">
						<ele>492</ele>
						<time>2025-06-26T12:58:26Z</time>
					</trkpt>
					<trkpt lat="45.746770" lon="4.512820">
						<ele>491</ele>
						<time>2025-06-26T12:58:57Z</time>
					</trkpt>
					<trkpt lat="45.746800" lon="4.512720">
						<ele>491</ele>
						<time>2025-06-26T12:59:07Z</time>
					</trkpt>
					<trkpt lat="45.746860" lon="4.512630">
						<ele>492</ele>
						<time>2025-06-26T12:59:19Z</time>
					</trkpt>
					<trkpt lat="45.747080" lon="4.512480">
						<ele>496</ele>
						<time>2025-06-26T12:59:51Z</time>
					</trkpt>
					<trkpt lat="45.747300" lon="4.512340">
						<ele>500</ele>
						<time>2025-06-26T13:00:23Z</time>
					</trkpt>
					<trkpt lat="45.747510" lon="4.511950">
						<ele>503</ele>
						<time>2025-06-26T13:01:09Z</time>
					</trkpt>
					<trkpt lat="45.747620" lon="4.511660">
						<ele>503</ele>
						<time>2025-06-26T13:01:40Z</time>
					</trkpt>
					<trkpt lat="45.747650" lon="4.511420">
						<ele>504</ele>
						<time>2025-06-26T13:02:03Z</time>
					</trkpt>
					<trkpt lat="45.747640" lon="4.511200">
						<ele>504</ele>
						<time>2025-06-26T13:02:23Z</time>
					</trkpt>
					<trkpt lat="45.747610" lon="4.511120">
						<ele>503</ele>
						<time>2025-06-26T13:02:32Z</time>
					</trkpt>
					<trkpt lat="45.747560" lon="4.510940">
						<ele>503</ele>
						<time>2025-06-26T13:02:50Z</time>
					</trkpt>
					<trkpt lat="45.747630" lon="4.510990">
						<ele>504</ele>
						<time>2025-06-26T13:03:00Z</time>
					</trkpt>
					<trkpt lat="45.747680" lon="4.510960">
						<ele>505</ele>
						<time>2025-06-26T13:03:07Z</time>
					</trkpt>
					<trkpt lat="45.747800" lon="4.510780">
						<ele>506</ele>
						<time>2025-06-26T13:03:31Z</time>
					</trkpt>
					<trkpt lat="45.747900" lon="4.510650">
						<ele>508</ele>
						<time>2025-06-26T13:03:49Z</time>
					</trkpt>
					<trkpt lat="45.747980" lon="4.510590">
						<ele>509</ele>
						<time>2025-06-26T13:04:01Z</time>
					</trkpt>
					<trkpt lat="45.748080" lon="4.510580">
						<ele>511</ele>
						<time>2025-06-26T13:04:14Z</time>
					</trkpt>
					<trkpt lat="45.748310" lon="4.510570">
						<ele>514</ele>
						<time>2025-06-26T13:04:45Z</time>
					</trkpt>
					<trkpt lat="45.748410" lon="4.510580">
						<ele>515</ele>
						<time>2025-06-26T13:04:58Z</time>
					</trkpt>
					<trkpt lat="45.748420" lon="4.510560">
						<ele>515</ele>
						<time>2025-06-26T13:05:00Z</time>
					</trkpt>
					<trkpt lat="45.748410" lon="4.510580">
						<ele>515</ele>
						<time>2025-06-26T13:05:03Z</time>
					</trkpt>
					<trkpt lat="45.748360" lon="4.510810">
						<ele>514</ele>
						<time>2025-06-26T13:05:25Z</time>
					</trkpt>
					<trkpt lat="45.748330" lon="4.511020">
						<ele>515</ele>
						<time>2025-06-26T13:05:45Z</time>
					</trkpt>
					<trkpt lat="45.748310" lon="4.511300">
						<ele>516</ele>
						<time>2025-06-26T13:06:11Z</time>
					</trkpt>
					<trkpt lat="45.748310" lon="4.511740">
						<ele>518</ele>
						<time>2025-06-26T13:06:52Z</time>
					</trkpt>
					<trkpt lat="45.748290" lon="4.512040">
						<ele>520</ele>
						<time>2025-06-26T13:07:20Z</time>
					</trkpt>
					<trkpt lat="45.748250" lon="4.512170">
						<ele>520</ele>
						<time>2025-06-26T13:07:34Z</time>
					</trkpt>
					<trkpt lat="45.748070" lon="4.512390">
						<ele>518</ele>
						<time>2025-06-26T13:08:05Z</time>
					</trkpt>
					<trkpt lat="45.747970" lon="4.512540">
						<ele>517</ele>
						<time>2025-06-26T13:08:24Z</time>
					</trkpt>
					<trkpt lat="45.747890" lon="4.512700">
						<ele>516</ele>
						<time>2025-06-26T13:08:43Z</time>
					</trkpt>
					<trkpt lat="45.747820" lon="4.512880">
						<ele>515</ele>
						<time>2025-06-26T13:09:02Z</time>
					</trkpt>
					<trkpt lat="45.747780" lon="4.513080">
						<ele>516</ele>
						<time>2025-06-26T13:09:21Z</time>
					</trkpt>
					<trkpt lat="45.747750" lon="4.513310">
						<ele>516</ele>
						<time>2025-06-26T13:09:43Z</time>
					</trkpt>
					<trkpt lat="45.747740" lon="4.513820">
						<ele>516</ele>
						<time>2025-06-26T13:10:31Z</time>
					</trkpt>
					<trkpt lat="45.747770" lon="4.514540">
						<ele>518</ele>
						<time>2025-06-26T13:11:38Z</time>
					</trkpt>
					<trkpt lat="45.747770" lon="4.514810">
						<ele>518</ele>
						<time>2025-06-26T13:12:03Z</time>
					</trkpt>
					<trkpt lat="45.747730" lon="4.515010">
						<ele>518</ele>
						<time>2025-06-26T13:12:22Z</time>
					</trkpt>
					<trkpt lat="45.747550" lon="4.515380">
						<ele>517</ele>
						<time>2025-06-26T13:13:04Z</time>
					</trkpt>
					<trkpt lat="45.747490" lon="4.515580">
						<ele>517</ele>
						<time>2025-06-26T13:13:25Z</time>
					</trkpt>
					<trkpt lat="45.747410" lon="4.516010">
						<ele>518</ele>
						<time>2025-06-26T13:14:06Z</time>
					</trkpt>
					<trkpt lat="45.747410" lon="4.516540">
						<ele>520</ele>
						<time>2025-06-26T13:14:55Z</time>
					</trkpt>
					<trkpt lat="45.747420" lon="4.516900">
						<ele>518</ele>
						<time>2025-06-26T13:15:29Z</time>
					</trkpt>
					<trkpt lat="45.747490" lon="4.517780">
						<ele>510</ele>
						<time>2025-06-26T13:16:51Z</time>
					</trkpt>
					<trkpt lat="45.747450" lon="4.518080">
						<ele>507</ele>
						<time>2025-06-26T13:17:20Z</time>
					</trkpt>
					<trkpt lat="45.747200" lon="4.518420">
						<ele>506</ele>
						<time>2025-06-26T13:18:06Z</time>
					</trkpt>
					<trkpt lat="45.747090" lon="4.518540">
						<ele>506</ele>
						<time>2025-06-26T13:18:24Z</time>
					</trkpt>
					<trkpt lat="45.747030" lon="4.518680">
						<ele>505</ele>
						<time>2025-06-26T13:18:40Z</time>
					</trkpt>
					<trkpt lat="45.747240" lon="4.519430">
						<ele>492</ele>
						<time>2025-06-26T13:19:55Z</time>
					</trkpt>
					<trkpt lat="45.747240" lon="4.519690">
						<ele>489</ele>
						<time>2025-06-26T13:20:19Z</time>
					</trkpt>
					<trkpt lat="45.747280" lon="4.519930">
						<ele>486</ele>
						<time>2025-06-26T13:20:42Z</time>
					</trkpt>
					<trkpt lat="45.747440" lon="4.520760">
						<ele>480</ele>
						<time>2025-06-26T13:22:02Z</time>
					</trkpt>
					<trkpt lat="45.747580" lon="4.521230">
						<ele>476</ele>
						<time>2025-06-26T13:22:50Z</time>
					</trkpt>
					<trkpt lat="45.747640" lon="4.521560">
						<ele>474</ele>
						<time>2025-06-26T13:23:22Z</time>
					</trkpt>
					<trkpt lat="45.747660" lon="4.521620">
						<ele>473</ele>
						<time>2025-06-26T13:23:28Z</time>
					</trkpt>
					<trkpt lat="45.747700" lon="4.522010">
						<ele>470</ele>
						<time>2025-06-26T13:24:04Z</time>
					</trkpt>
					<trkpt lat="45.747690" lon="4.522430">
						<ele>467</ele>
						<time>2025-06-26T13:24:44Z</time>
					</trkpt>
					<trkpt lat="45.747640" lon="4.522960">
						<ele>461</ele>
						<time>2025-06-26T13:25:33Z</time>
					</trkpt>
					<trkpt lat="45.747910" lon="4.523260">
						<ele>459</ele>
						<time>2025-06-26T13:26:19Z</time>
					</trkpt>
					<trkpt lat="45.747960" lon="4.523380">
						<ele>458</ele>
						<time>2025-06-26T13:26:32Z</time>
					</trkpt>
					<trkpt lat="45.747980" lon="4.523560">
						<ele>456</ele>
						<time>2025-06-26T13:26:49Z</time>
					</trkpt>
					<trkpt lat="45.747960" lon="4.523990">
						<ele>453</ele>
						<time>2025-06-26T13:27:29Z</time>
					</trkpt>
					<trkpt lat="45.747970" lon="4.524080">
						<ele>452</ele>
						<time>2025-06-26T13:27:38Z</time>
					</trkpt>
					<trkpt lat="45.747990" lon="4.524190">
						<ele>451</ele>
						<time>2025-06-26T13:27:48Z</time>
					</trkpt>
					<trkpt lat="45.748050" lon="4.524390">
						<ele>451</ele>
						<time>2025-06-26T13:28:08Z</time>
					</trkpt>
					<trkpt lat="45.748040" lon="4.524400">
						<ele>451</ele>
						<time>2025-06-26T13:28:10Z</time>
					</trkpt>
					<trkpt lat="45.747650" lon="4.524700">
						<ele>449</ele>
						<time>2025-06-26T13:29:09Z</time>
					</trkpt>
					<trkpt lat="45.747600" lon="4.524730">
						<ele>449</ele>
						<time>2025-06-26T13:29:16Z</time>
					</trkpt>
					<trkpt lat="45.747540" lon="4.524710">
						<ele>449</ele>
						<time>2025-06-26T13:29:25Z</time>
					</trkpt>
					<trkpt lat="45.747410" lon="4.524710">
						<ele>448</ele>
						<time>2025-06-26T13:29:42Z</time>
					</trkpt>
					<trkpt lat="45.747240" lon="4.524810">
						<ele>445</ele>
						<time>2025-06-26T13:30:07Z</time>
					</trkpt>
					<trkpt lat="45.747250" lon="4.524840">
						<ele>445</ele>
						<time>2025-06-26T13:30:10Z</time>
					</trkpt>
					<trkpt lat="45.747240" lon="4.524810">
						<ele>445</ele>
						<time>2025-06-26T13:30:13Z</time>
					</trkpt>
					<trkpt lat="45.747160" lon="4.524880">
						<ele>444</ele>
						<time>2025-06-26T13:30:25Z</time>
					</trkpt>
					<trkpt lat="45.747060" lon="4.524930">
						<ele>442</ele>
						<time>2025-06-26T13:30:39Z</time>
					</trkpt>
					<trkpt lat="45.746910" lon="4.524640">
						<ele>440</ele>
						<time>2025-06-26T13:31:13Z</time>
					</trkpt>
					<trkpt lat="45.746880" lon="4.524550">
						<ele>440</ele>
						<time>2025-06-26T13:31:22Z</time>
					</trkpt>
					</trkseg>
				</trk>
			</gpx>